Main page
METAR-TAF:

METAR-TAF

Airports :

MoD Boscombe Down

Boscombe Down, England

latitude: 51-10N, longitude: 001-45W, elevation: 124 m

Current weather observation

The report was made 33 minutes ago, at 14:50 UTC
Wind 9 kt from the South/Southwest
Temperature 28°C
Humidity 35%
Pressure 1016 hPa
Visibility 10 km or more
no clouds below 1500 m and no cumulonimbus

METAR: EGDM 231450Z 21009KT CAVOK 28/11 Q1016 BLU NOSIG

Time: 16:23 (15:23 UTC)

Forecast

The report was made 1 hour and 35 minutes ago, at 13:48 UTC
Forecast valid from 23 at 15 UTC to 23 at 18 UTC
Wind 10 kt from the South/Southwest
Visibility 10 km or more
no clouds below 1500 m and no cumulonimbus

TAF: EGDM 231348Z 2315/2318 21010KT CAVOK

Weather observations and forecasts of more than 4000 airports (METAR and TAF reports).

The available stations are represented by yellow and red dots on the map.

Hover mouse over dot to see the name of the station.

Then click to see weather observations and forecasts.

To change the map : click on the green buttons with a black cross to zoom in, on the green button with a dash to zoom out, or on the green arrows for adjacent maps.


METAR-TAF: